Aviation Digital Data Service (ADDS)

Output produced by METARs form (0508 UTC 25 June 2017)
found at http://aviationweather.gov/adds/metars/
 
KSWF 250248Z 2503/2606 26006KT P6SM FEW080 FEW250 
     FM250700 00000KT P6SM FEW080 FEW250 
     FM251500 28006KT P6SM SCT080 
     FM251800 26010KT P6SM SCT080 
     FM260200 29007KT P6SM SCT060 AMD NOT SKED